HADR/DIR METAR and TAF weather

Enter ICAO airport designator
Station Type Date Time Source
HADR METAR 2017/11/02 12:00 UTC NOAA

HADR 021200Z 28004 9KM BKN027 32/08 Q1016 RMK -HZ


Station Type Date Time Source
HADR Decoded METAR 2017/11/02 12:00 UTC NOAA

Dire Dawa, Ethiopia (HADR) 09-36N 041-52E 1146M
Nov 02, 2017 - 08:00 AM EDT / 2017.11.02 1200 UTC
Sky conditions: mostly cloudy
Temperature: 89 F (32 C)
Dew Point: 46 F (8 C)
Relative Humidity: 22%
Pressure (altimeter): 30.00 in. Hg (1016 hPa)
ob: HADR 021200Z 28004 9KM BKN027 32/08 Q1016 RMK -HZ
cycle: 12

Station Type Date Time Source
HADR TAF 2018/01/22 18:30 UTC NOAA

TAF HADR 221530Z 2218/2324 28006KT 9999 FEW040 FEW090
BECMG 23009/2314 36008KT FEW040


Example: see airport list